createdAt,value
2023-03-26T00:00:33.959Z,952
2023-03-26T00:01:37.681Z,952
2023-03-26T00:02:41.486Z,952
2023-03-26T00:03:44.889Z,952
2023-03-26T00:04:48.432Z,952
2023-03-26T00:05:52.481Z,952
2023-03-26T00:06:56.050Z,952
2023-03-26T00:07:59.465Z,952
2023-03-26T00:09:02.761Z,952
2023-03-26T00:10:06.338Z,952
2023-03-26T00:11:09.688Z,952
2023-03-26T00:12:13.006Z,952
2023-03-26T00:13:16.472Z,952
2023-03-26T00:14:19.773Z,952
2023-03-26T00:15:23.120Z,952
2023-03-26T00:16:26.622Z,952
2023-03-26T00:17:30.380Z,952
2023-03-26T00:18:33.715Z,952
2023-03-26T00:19:37.021Z,952
2023-03-26T00:20:40.432Z,952
2023-03-26T00:21:43.791Z,952
2023-03-26T00:22:47.121Z,952
2023-03-26T00:23:50.459Z,952
2023-03-26T00:24:53.755Z,952
2023-03-26T00:25:57.464Z,952
2023-03-26T00:27:00.827Z,952
2023-03-26T00:28:04.364Z,952
2023-03-26T00:29:07.702Z,952
2023-03-26T00:30:11.003Z,952
2023-03-26T00:31:14.745Z,952
2023-03-26T00:32:18.365Z,952
2023-03-26T00:33:21.678Z,952
2023-03-26T00:34:25.185Z,952
2023-03-26T00:35:28.488Z,952
2023-03-26T00:36:31.794Z,952
2023-03-26T00:37:35.087Z,952
2023-03-26T00:38:38.512Z,952
2023-03-26T00:39:41.815Z,952
2023-03-26T00:40:45.359Z,952
2023-03-26T00:41:48.658Z,952
2023-03-26T00:42:52.022Z,952
2023-03-26T00:43:55.484Z,952
2023-03-26T00:44:58.779Z,952
2023-03-26T00:46:02.177Z,952
2023-03-26T00:47:05.652Z,952
2023-03-26T00:48:09.272Z,952
2023-03-26T00:49:12.603Z,952
2023-03-26T00:50:15.942Z,952
2023-03-26T00:51:19.489Z,952
2023-03-26T00:52:22.802Z,952
2023-03-26T00:53:26.106Z,952
2023-03-26T00:54:29.462Z,952
2023-03-26T00:55:32.796Z,952
2023-03-26T00:56:36.648Z,952
2023-03-26T00:57:40.269Z,952
2023-03-26T00:58:43.811Z,952
2023-03-26T00:59:47.361Z,952
2023-03-26T01:00:50.661Z,952
2023-03-26T01:01:54.561Z,952
2023-03-26T01:02:58.044Z,952
2023-03-26T01:04:09.477Z,952
2023-03-26T01:05:13.080Z,952
2023-03-26T01:06:16.448Z,952
2023-03-26T01:07:19.764Z,952
2023-03-26T01:08:23.110Z,952
2023-03-26T01:09:26.501Z,952
2023-03-26T01:10:29.806Z,952
2023-03-26T01:11:33.321Z,952
2023-03-26T01:12:36.594Z,952
2023-03-26T01:13:39.930Z,952
2023-03-26T01:14:43.519Z,952
2023-03-26T01:15:46.931Z,952
2023-03-26T01:16:50.449Z,952
2023-03-26T01:17:53.868Z,952
2023-03-26T01:18:57.477Z,952
2023-03-26T01:20:00.831Z,952
2023-03-26T01:21:04.116Z,952
2023-03-26T01:22:07.479Z,952
2023-03-26T01:23:10.778Z,952
2023-03-26T01:24:14.058Z,952
2023-03-26T01:25:17.490Z,952
2023-03-26T01:26:20.782Z,952
2023-03-26T01:27:24.488Z,952
2023-03-26T01:28:27.921Z,952
2023-03-26T01:29:31.576Z,952
2023-03-26T01:30:35.142Z,952
2023-03-26T01:31:38.483Z,952
2023-03-26T01:32:42.346Z,952
2023-03-26T01:33:46.072Z,952
2023-03-26T01:34:49.497Z,952
2023-03-26T01:35:54.003Z,952
2023-03-26T01:36:57.621Z,952
2023-03-26T01:38:00.910Z,952
2023-03-26T01:39:04.213Z,952
2023-03-26T01:40:07.517Z,952
2023-03-26T01:41:10.863Z,952
2023-03-26T01:42:14.262Z,952
2023-03-26T01:43:17.552Z,952
2023-03-26T01:44:20.837Z,952
2023-03-26T01:45:24.386Z,952
2023-03-26T01:46:28.095Z,952
2023-03-26T01:47:31.614Z,952
2023-03-26T01:48:34.977Z,952
2023-03-26T01:49:38.497Z,952
2023-03-26T01:50:41.796Z,952
2023-03-26T01:51:45.383Z,952
2023-03-26T01:52:48.690Z,952
2023-03-26T01:53:51.984Z,952
2023-03-26T01:54:55.467Z,952
2023-03-26T01:55:58.764Z,952
2023-03-26T01:57:02.321Z,952
2023-03-26T01:58:05.730Z,952
2023-03-26T01:59:09.371Z,952
2023-03-26T02:00:12.701Z,952
2023-03-26T02:01:16.114Z,952
2023-03-26T02:02:19.919Z,952
2023-03-26T02:03:24.371Z,952
2023-03-26T02:04:27.716Z,952
2023-03-26T02:05:31.014Z,952
2023-03-26T02:06:34.507Z,952
2023-03-26T02:07:37.962Z,952
2023-03-26T02:08:41.556Z,952
2023-03-26T02:09:45.566Z,951
2023-03-26T02:10:48.839Z,951
2023-03-26T02:11:52.133Z,951
2023-03-26T02:12:55.745Z,952
2023-03-26T02:13:59.066Z,952
2023-03-26T02:15:02.523Z,952
2023-03-26T02:16:05.940Z,952
2023-03-26T02:17:09.523Z,952
2023-03-26T02:18:12.868Z,952
2023-03-26T02:19:16.474Z,952
2023-03-26T02:20:19.782Z,952
2023-03-26T02:21:23.114Z,952
2023-03-26T02:22:26.496Z,951
2023-03-26T02:23:29.801Z,951
2023-03-26T02:24:33.337Z,951
2023-03-26T02:25:36.617Z,951
2023-03-26T02:26:39.897Z,951
2023-03-26T02:27:43.196Z,951
2023-03-26T02:28:46.486Z,951
2023-03-26T02:29:49.768Z,951
2023-03-26T02:30:53.042Z,951
2023-03-26T02:31:56.761Z,951
2023-03-26T02:33:00.527Z,951
2023-03-26T02:34:03.875Z,951
2023-03-26T02:35:07.409Z,951
2023-03-26T02:36:11.231Z,951
2023-03-26T02:37:14.555Z,951
2023-03-26T02:38:17.823Z,951
2023-03-26T02:39:21.404Z,951
2023-03-26T02:40:24.688Z,951
2023-03-26T02:41:27.974Z,951
2023-03-26T02:42:31.515Z,951
2023-03-26T02:43:34.848Z,951
2023-03-26T02:44:38.142Z,951
2023-03-26T02:45:41.648Z,951
2023-03-26T02:46:44.916Z,951
2023-03-26T02:47:48.610Z,951
2023-03-26T02:48:51.938Z,951
2023-03-26T02:49:55.277Z,951
2023-03-26T02:50:58.566Z,951
2023-03-26T02:52:01.843Z,951
2023-03-26T02:53:05.125Z,951
2023-03-26T02:54:08.572Z,951
2023-03-26T02:55:11.845Z,951
2023-03-26T02:56:15.386Z,951
2023-03-26T02:57:18.696Z,951
2023-03-26T02:58:21.987Z,951
2023-03-26T02:59:25.544Z,951
2023-03-26T03:00:28.820Z,951
2023-03-26T03:01:32.417Z,951
2023-03-26T03:02:36.384Z,951
2023-03-26T03:03:39.802Z,951
2023-03-26T03:04:43.139Z,951
2023-03-26T03:05:46.551Z,951
2023-03-26T03:06:49.827Z,951
2023-03-26T03:07:53.110Z,951
2023-03-26T03:08:56.508Z,951
2023-03-26T03:09:59.799Z,951
2023-03-26T03:11:03.333Z,951
2023-03-26T03:12:06.625Z,951
2023-03-26T03:13:09.915Z,951
2023-03-26T03:14:13.273Z,951
2023-03-26T03:15:16.556Z,951
2023-03-26T03:16:19.959Z,951
2023-03-26T03:17:23.736Z,951
2023-03-26T03:18:30.529Z,951
2023-03-26T03:19:33.812Z,951
2023-03-26T03:20:37.126Z,951
2023-03-26T03:21:40.650Z,951
2023-03-26T03:22:43.926Z,951
2023-03-26T03:23:47.184Z,951
2023-03-26T03:24:50.512Z,951
2023-03-26T03:25:54.899Z,950
2023-03-26T03:26:58.518Z,950
2023-03-26T03:28:01.797Z,950
2023-03-26T03:29:05.095Z,950
2023-03-26T03:30:08.552Z,950
2023-03-26T03:31:14.931Z,950
2023-03-26T03:32:18.538Z,950
2023-03-26T03:33:21.815Z,950
2023-03-26T03:34:25.085Z,950
2023-03-26T03:35:28.623Z,950
2023-03-26T03:36:31.930Z,951
2023-03-26T03:37:35.324Z,950
2023-03-26T03:38:38.624Z,950
2023-03-26T03:39:41.926Z,951
2023-03-26T03:40:45.452Z,951
2023-03-26T03:41:48.741Z,950
2023-03-26T03:42:52.016Z,950
2023-03-26T03:43:55.513Z,950
2023-03-26T03:44:58.792Z,950
2023-03-26T03:46:02.144Z,950
2023-03-26T03:47:05.526Z,950
2023-03-26T03:48:09.364Z,950
2023-03-26T03:49:12.688Z,950
2023-03-26T03:50:15.979Z,950
2023-03-26T03:51:19.547Z,950
2023-03-26T03:52:22.852Z,950
2023-03-26T03:53:26.350Z,950
2023-03-26T03:54:29.748Z,950
2023-03-26T03:55:33.316Z,950
2023-03-26T03:56:36.683Z,950
2023-03-26T03:57:39.985Z,950
2023-03-26T03:58:43.246Z,950
2023-03-26T03:59:48.750Z,950
2023-03-26T04:00:52.051Z,950
2023-03-26T04:01:55.580Z,950
2023-03-26T04:02:59.463Z,950
2023-03-26T04:04:03.408Z,950
2023-03-26T04:05:06.769Z,950
2023-03-26T04:06:10.060Z,950
2023-03-26T04:07:13.569Z,950
2023-03-26T04:08:16.923Z,950
2023-03-26T04:09:20.280Z,950
2023-03-26T04:10:23.610Z,950
2023-03-26T04:11:26.883Z,950
2023-03-26T04:12:30.410Z,950
2023-03-26T04:13:33.726Z,950
2023-03-26T04:14:37.006Z,950
2023-03-26T04:15:40.709Z,950
2023-03-26T04:16:44.054Z,950
2023-03-26T04:17:47.794Z,950
2023-03-26T04:18:51.323Z,950
2023-03-26T04:19:54.614Z,950
2023-03-26T04:20:57.904Z,950
2023-03-26T04:22:01.184Z,950
2023-03-26T04:23:04.571Z,950
2023-03-26T04:24:07.864Z,950
2023-03-26T04:25:11.221Z,950
2023-03-26T04:26:14.534Z,950
2023-03-26T04:27:17.826Z,950
2023-03-26T04:28:21.365Z,950
2023-03-26T04:29:24.652Z,950
2023-03-26T04:30:27.937Z,950
2023-03-26T04:31:31.495Z,950
2023-03-26T04:32:34.940Z,950
2023-03-26T04:33:38.240Z,950
2023-03-26T04:34:41.546Z,950
2023-03-26T04:35:45.025Z,950
2023-03-26T04:36:48.570Z,950
2023-03-26T04:37:51.846Z,950
2023-03-26T04:38:55.124Z,950
2023-03-26T04:39:58.585Z,950
2023-03-26T04:41:04.989Z,950
2023-03-26T04:42:08.283Z,950
2023-03-26T04:43:11.580Z,950
2023-03-26T04:44:14.855Z,950
2023-03-26T04:45:18.378Z,950
2023-03-26T04:46:21.994Z,950
2023-03-26T04:47:25.653Z,950
2023-03-26T04:48:28.963Z,950
2023-03-26T04:49:32.264Z,950
2023-03-26T04:50:35.600Z,950
2023-03-26T04:51:39.061Z,950
2023-03-26T04:52:45.737Z,950
2023-03-26T04:53:49.032Z,950
2023-03-26T04:54:52.619Z,950
2023-03-26T04:55:56.708Z,950
2023-03-26T04:57:00.430Z,950
2023-03-26T04:58:03.782Z,950
2023-03-26T04:59:07.069Z,950
2023-03-26T05:00:10.592Z,950
2023-03-26T05:01:14.202Z,950
2023-03-26T05:02:17.547Z,950
2023-03-26T05:03:21.022Z,950
2023-03-26T05:04:24.672Z,950
2023-03-26T05:05:27.976Z,950
2023-03-26T05:06:31.296Z,950
2023-03-26T05:07:34.565Z,950
2023-03-26T05:08:37.854Z,950
2023-03-26T05:09:41.202Z,950
2023-03-26T05:10:44.557Z,949
2023-03-26T05:11:47.873Z,949
2023-03-26T05:12:51.424Z,949
2023-03-26T05:13:54.772Z,949
2023-03-26T05:14:58.052Z,949
2023-03-26T05:16:01.633Z,949
2023-03-26T05:17:05.057Z,949
2023-03-26T05:18:09.365Z,949
2023-03-26T05:19:12.681Z,949
2023-03-26T05:20:15.960Z,949
2023-03-26T05:21:19.252Z,949
2023-03-26T05:22:22.605Z,949
2023-03-26T05:23:25.920Z,949
2023-03-26T05:24:29.240Z,949
2023-03-26T05:25:32.633Z,949
2023-03-26T05:26:35.995Z,949
2023-03-26T05:27:39.486Z,949
2023-03-26T05:28:42.822Z,949
2023-03-26T05:29:46.143Z,949
2023-03-26T05:30:49.568Z,949
2023-03-26T05:31:52.882Z,949
2023-03-26T05:32:56.547Z,949
2023-03-26T05:34:00.117Z,949
2023-03-26T05:35:03.601Z,949
2023-03-26T05:36:06.881Z,949
2023-03-26T05:37:10.257Z,949
2023-03-26T05:38:13.606Z,949
2023-03-26T05:39:16.887Z,949
2023-03-26T05:40:20.327Z,949
2023-03-26T05:41:23.657Z,949
2023-03-26T05:42:26.980Z,949
2023-03-26T05:43:30.513Z,949
2023-03-26T05:44:33.900Z,949
2023-03-26T05:45:37.198Z,949
2023-03-26T05:46:40.592Z,949
2023-03-26T05:47:44.184Z,949
2023-03-26T05:48:47.625Z,949
2023-03-26T05:49:50.969Z,949
2023-03-26T05:50:54.980Z,949
2023-03-26T05:51:58.582Z,949
2023-03-26T05:53:01.901Z,949
2023-03-26T05:54:05.182Z,949
2023-03-26T05:55:08.617Z,949
2023-03-26T05:56:11.930Z,949
2023-03-26T05:57:15.535Z,949
2023-03-26T05:58:18.876Z,949
2023-03-26T05:59:22.172Z,949
2023-03-26T06:00:25.694Z,949
2023-03-26T06:01:29.069Z,949
2023-03-26T06:02:32.684Z,949
2023-03-26T06:03:36.718Z,949
2023-03-26T06:04:40.469Z,949
2023-03-26T06:05:43.786Z,949
2023-03-26T06:06:50.246Z,949
2023-03-26T06:07:53.595Z,949
2023-03-26T06:09:03.378Z,949
2023-03-26T06:10:06.787Z,949
2023-03-26T06:11:10.134Z,949
2023-03-26T06:12:13.628Z,949
2023-03-26T06:13:16.947Z,949
2023-03-26T06:14:20.290Z,949
2023-03-26T06:15:23.660Z,949
2023-03-26T06:16:28.749Z,949
2023-03-26T06:17:32.179Z,949
2023-03-26T06:18:35.780Z,949
2023-03-26T06:19:39.055Z,949
2023-03-26T06:20:42.551Z,949
2023-03-26T06:21:45.860Z,949
2023-03-26T06:22:49.142Z,949
2023-03-26T06:23:52.640Z,949
2023-03-26T06:24:55.952Z,949
2023-03-26T06:25:59.217Z,949
2023-03-26T06:27:02.618Z,949
2023-03-26T06:28:06.023Z,949
2023-03-26T06:29:09.607Z,949
2023-03-26T06:30:12.936Z,949
2023-03-26T06:31:16.455Z,949
2023-03-26T06:32:21.134Z,949
2023-03-26T06:33:24.981Z,949
2023-03-26T06:34:28.266Z,949
2023-03-26T06:35:31.861Z,949
2023-03-26T06:36:35.257Z,949
2023-03-26T06:37:38.642Z,949
2023-03-26T06:38:41.949Z,949
2023-03-26T06:39:45.500Z,949
2023-03-26T06:40:48.778Z,949
2023-03-26T06:41:52.069Z,949
2023-03-26T06:43:07.276Z,949
2023-03-26T06:44:13.368Z,949
2023-03-26T06:45:16.651Z,949
2023-03-26T06:46:20.019Z,949
2023-03-26T06:47:23.471Z,949
2023-03-26T06:48:26.812Z,949
2023-03-26T06:49:30.125Z,949
2023-03-26T06:50:33.639Z,949
2023-03-26T06:51:36.997Z,949
2023-03-26T06:52:40.296Z,949
2023-03-26T06:53:43.634Z,949
2023-03-26T06:54:46.904Z,949
2023-03-26T06:55:50.217Z,949
2023-03-26T06:56:53.722Z,949
2023-03-26T06:57:57.093Z,949
2023-03-26T06:59:00.639Z,949
2023-03-26T07:00:03.964Z,949
2023-03-26T07:01:07.481Z,949
2023-03-26T07:02:10.820Z,949
2023-03-26T07:03:14.179Z,949
2023-03-26T07:04:18.001Z,949
2023-03-26T07:05:22.966Z,949
2023-03-26T07:06:26.241Z,949
2023-03-26T07:07:29.623Z,949
2023-03-26T07:08:32.973Z,949
2023-03-26T07:09:36.537Z,948
2023-03-26T07:10:39.833Z,949
2023-03-26T07:11:43.108Z,948
2023-03-26T07:12:46.676Z,948
2023-03-26T07:13:49.934Z,948
2023-03-26T07:14:53.234Z,948
2023-03-26T07:15:56.656Z,948
2023-03-26T07:16:59.933Z,948
2023-03-26T07:18:03.727Z,948
2023-03-26T07:19:07.163Z,948
2023-03-26T07:20:10.989Z,948
2023-03-26T07:21:14.273Z,948
2023-03-26T07:22:17.693Z,948
2023-03-26T07:23:21.465Z,948
2023-03-26T07:24:24.743Z,948
2023-03-26T07:25:28.042Z,948
2023-03-26T07:26:31.337Z,948
2023-03-26T07:27:34.642Z,948
2023-03-26T07:28:37.932Z,948
2023-03-26T07:29:41.197Z,948
2023-03-26T07:30:44.627Z,948
2023-03-26T07:31:48.170Z,948
2023-03-26T07:32:51.792Z,948
2023-03-26T07:33:55.165Z,948
2023-03-26T07:34:58.688Z,948
2023-03-26T07:36:04.774Z,948
2023-03-26T07:37:08.063Z,948
2023-03-26T07:38:11.434Z,948
2023-03-26T07:39:14.784Z,948
2023-03-26T07:40:18.079Z,948
2023-03-26T07:41:21.661Z,948
2023-03-26T07:42:24.994Z,948
2023-03-26T07:43:28.259Z,948
2023-03-26T07:44:36.002Z,948
2023-03-26T07:45:39.815Z,948
2023-03-26T07:46:43.232Z,948
2023-03-26T07:47:46.785Z,947
2023-03-26T07:48:50.101Z,947
2023-03-26T07:49:53.445Z,947
2023-03-26T07:50:57.682Z,947
2023-03-26T07:52:01.027Z,947
2023-03-26T07:53:04.321Z,947
2023-03-26T07:54:07.702Z,947
2023-03-26T07:55:11.041Z,947
2023-03-26T07:56:14.501Z,947
2023-03-26T07:57:18.049Z,947
2023-03-26T07:58:21.612Z,947
2023-03-26T07:59:24.897Z,947
2023-03-26T08:00:28.258Z,947
2023-03-26T08:01:31.662Z,947
2023-03-26T08:02:35.214Z,947
2023-03-26T08:03:38.892Z,947
2023-03-26T08:04:42.756Z,947
2023-03-26T08:05:46.209Z,947
2023-03-26T08:06:50.120Z,947
2023-03-26T08:07:53.515Z,947
2023-03-26T08:08:56.867Z,947
2023-03-26T08:10:00.471Z,947
2023-03-26T08:11:03.841Z,947
2023-03-26T08:12:07.102Z,947
2023-03-26T08:13:10.385Z,947
2023-03-26T08:14:13.733Z,947
2023-03-26T08:15:17.015Z,947
2023-03-26T08:16:20.415Z,947
2023-03-26T08:17:23.988Z,947
2023-03-26T08:18:27.843Z,947
2023-03-26T08:19:34.342Z,947
2023-03-26T08:20:37.728Z,947
2023-03-26T08:21:41.080Z,947
2023-03-26T08:22:44.383Z,947
2023-03-26T08:23:51.720Z,947
2023-03-26T08:24:55.029Z,947
2023-03-26T08:25:58.301Z,947
2023-03-26T08:27:01.757Z,947
2023-03-26T08:28:05.036Z,947
2023-03-26T08:29:08.358Z,947
2023-03-26T08:30:11.735Z,947
2023-03-26T08:31:15.137Z,947
2023-03-26T08:32:18.727Z,947
2023-03-26T08:33:22.047Z,947
2023-03-26T08:34:25.371Z,947
2023-03-26T08:35:28.997Z,947
2023-03-26T08:36:32.344Z,947
2023-03-26T08:37:35.704Z,947
2023-03-26T08:38:39.014Z,947
2023-03-26T08:39:42.728Z,947
2023-03-26T08:40:46.030Z,947
2023-03-26T08:41:49.336Z,947
2023-03-26T08:42:52.773Z,947
2023-03-26T08:43:56.196Z,947
2023-03-26T08:44:59.691Z,947
2023-03-26T08:46:03.216Z,947
2023-03-26T08:47:06.668Z,947
2023-03-26T08:48:09.963Z,947
2023-03-26T08:49:13.262Z,947
2023-03-26T08:50:16.805Z,947
2023-03-26T08:51:20.175Z,947
2023-03-26T08:52:23.669Z,947
2023-03-26T08:53:27.022Z,947
2023-03-26T08:54:30.617Z,947
2023-03-26T08:55:33.975Z,947
2023-03-26T08:56:37.435Z,947
2023-03-26T08:57:40.807Z,947
2023-03-26T08:58:44.107Z,947
2023-03-26T08:59:47.389Z,947
2023-03-26T09:00:50.771Z,947
2023-03-26T09:01:54.769Z,947
2023-03-26T09:02:58.280Z,947
2023-03-26T09:04:01.907Z,947
2023-03-26T09:05:05.205Z,947
2023-03-26T09:06:08.700Z,947
2023-03-26T09:07:12.021Z,947
2023-03-26T09:08:15.552Z,947
2023-03-26T09:09:19.880Z,947
2023-03-26T09:10:23.253Z,947
2023-03-26T09:11:26.702Z,947
2023-03-26T09:12:30.082Z,947
2023-03-26T09:13:33.649Z,947
2023-03-26T09:14:36.915Z,947
2023-03-26T09:15:40.212Z,947
2023-03-26T09:16:43.809Z,947
2023-03-26T09:17:47.210Z,947
2023-03-26T09:18:50.747Z,947
2023-03-26T09:19:54.050Z,947
2023-03-26T09:20:58.122Z,947
2023-03-26T09:22:01.727Z,947
2023-03-26T09:23:05.020Z,947
2023-03-26T09:24:08.322Z,946
2023-03-26T09:25:11.787Z,946
2023-03-26T09:26:15.096Z,946
2023-03-26T09:27:18.644Z,946
2023-03-26T09:28:21.904Z,946
2023-03-26T09:29:25.435Z,946
2023-03-26T09:30:28.735Z,946
2023-03-26T09:31:32.288Z,946
2023-03-26T09:32:36.099Z,946
2023-03-26T09:33:39.662Z,946
2023-03-26T09:34:43.032Z,946
2023-03-26T09:35:46.419Z,946
2023-03-26T09:36:49.706Z,947
2023-03-26T09:37:58.938Z,947
2023-03-26T09:39:02.245Z,947
2023-03-26T09:40:05.770Z,947
2023-03-26T09:41:09.077Z,947
2023-03-26T09:42:12.656Z,947
2023-03-26T09:43:15.980Z,947
2023-03-26T09:44:19.292Z,947
2023-03-26T09:45:22.864Z,947
2023-03-26T09:46:26.161Z,947
2023-03-26T09:47:29.561Z,946
2023-03-26T09:48:33.046Z,946
2023-03-26T09:49:36.567Z,946
2023-03-26T09:50:39.854Z,946
2023-03-26T09:51:43.168Z,946
2023-03-26T09:52:46.733Z,946
2023-03-26T09:53:50.018Z,946
2023-03-26T09:54:53.320Z,946
2023-03-26T09:55:57.654Z,946
2023-03-26T09:57:01.210Z,946
2023-03-26T09:58:05.098Z,946
2023-03-26T09:59:08.749Z,946
2023-03-26T10:00:12.185Z,946
2023-03-26T10:01:15.958Z,946
2023-03-26T10:02:19.264Z,946
2023-03-26T10:03:26.843Z,946
2023-03-26T10:04:30.582Z,946
2023-03-26T10:05:33.899Z,946
2023-03-26T10:06:37.249Z,946
2023-03-26T10:07:40.746Z,946
2023-03-26T10:08:44.014Z,946
2023-03-26T10:09:47.284Z,946
2023-03-26T10:10:50.692Z,946
2023-03-26T10:11:54.018Z,946
2023-03-26T10:13:14.372Z,946
2023-03-26T10:14:15.767Z,946
2023-03-26T10:15:19.084Z,946
2023-03-26T10:16:22.580Z,946
2023-03-26T10:17:26.246Z,946
2023-03-26T10:18:30.737Z,946
2023-03-26T10:19:34.249Z,946
2023-03-26T10:20:37.860Z,946
2023-03-26T10:21:41.201Z,946
2023-03-26T10:22:44.758Z,946
2023-03-26T10:23:48.037Z,946
2023-03-26T10:24:51.628Z,946
2023-03-26T10:25:54.885Z,946
2023-03-26T10:27:10.498Z,946
2023-03-26T10:28:14.247Z,946
2023-03-26T10:29:17.925Z,946
2023-03-26T10:30:21.538Z,946
2023-03-26T10:31:24.940Z,946
2023-03-26T10:32:28.369Z,946
2023-03-26T10:33:31.847Z,946
2023-03-26T10:34:35.154Z,946
2023-03-26T10:35:38.804Z,946
2023-03-26T10:36:42.208Z,946
2023-03-26T10:37:46.011Z,946
2023-03-26T10:38:49.307Z,946
2023-03-26T10:39:52.734Z,946
2023-03-26T10:40:56.969Z,946
2023-03-26T10:42:00.680Z,946
2023-03-26T10:43:03.947Z,946
2023-03-26T10:44:09.548Z,946
2023-03-26T10:45:12.892Z,946
2023-03-26T10:46:16.406Z,947
2023-03-26T10:47:19.724Z,946
2023-03-26T10:48:23.002Z,946
2023-03-26T10:49:26.294Z,946
2023-03-26T10:50:29.728Z,946
2023-03-26T10:51:33.027Z,946
2023-03-26T10:52:36.630Z,946
2023-03-26T10:53:39.916Z,946
2023-03-26T10:54:43.272Z,946
2023-03-26T10:55:46.768Z,946
2023-03-26T10:56:50.164Z,946
2023-03-26T10:57:53.453Z,946
2023-03-26T10:58:56.739Z,946
2023-03-26T11:00:00.222Z,946
2023-03-26T11:01:06.774Z,946
2023-03-26T11:02:10.088Z,946
2023-03-26T11:03:13.417Z,946
2023-03-26T11:04:16.739Z,946
2023-03-26T11:05:20.362Z,946
2023-03-26T11:06:23.771Z,946
2023-03-26T11:07:27.049Z,946
2023-03-26T11:08:33.055Z,946
2023-03-26T11:09:36.569Z,946
2023-03-26T11:10:39.909Z,946
2023-03-26T11:11:43.217Z,946
2023-03-26T11:12:46.748Z,946
2023-03-26T11:13:50.018Z,946
2023-03-26T11:14:53.302Z,946
2023-03-26T11:15:56.968Z,946
2023-03-26T11:17:00.602Z,946
2023-03-26T11:18:04.136Z,946
2023-03-26T11:19:07.440Z,946
2023-03-26T11:20:10.817Z,946
2023-03-26T11:21:21.025Z,946
2023-03-26T11:22:24.534Z,946
2023-03-26T11:23:27.822Z,946
2023-03-26T11:24:31.168Z,946
2023-03-26T11:25:34.454Z,946
2023-03-26T11:26:39.712Z,946
2023-03-26T11:27:43.265Z,946
2023-03-26T11:29:03.521Z,946
2023-03-26T11:30:04.935Z,946
2023-03-26T11:31:08.518Z,946
2023-03-26T11:32:11.931Z,946
2023-03-26T11:33:15.210Z,946
2023-03-26T11:34:18.719Z,946
2023-03-26T11:35:39.219Z,946
2023-03-26T11:36:40.137Z,946
2023-03-26T11:37:43.441Z,946
2023-03-26T11:38:46.757Z,946
2023-03-26T11:39:50.027Z,946
2023-03-26T11:40:54.239Z,946
2023-03-26T11:41:57.779Z,946
2023-03-26T11:43:01.098Z,946
2023-03-26T11:44:04.386Z,946
2023-03-26T11:45:07.743Z,946
2023-03-26T11:46:11.218Z,946
2023-03-26T11:47:14.779Z,946
2023-03-26T11:48:18.105Z,946
2023-03-26T11:49:21.638Z,946
2023-03-26T11:50:24.948Z,946
2023-03-26T11:51:28.229Z,946
2023-03-26T11:52:31.513Z,946
2023-03-26T11:53:34.833Z,946
2023-03-26T11:54:38.127Z,946
2023-03-26T11:55:41.454Z,946
2023-03-26T11:57:04.139Z,946
2023-03-26T11:58:02.878Z,946
2023-03-26T11:59:06.251Z,946
2023-03-26T12:00:09.804Z,945
2023-03-26T12:01:13.071Z,945
2023-03-26T12:02:16.621Z,945
2023-03-26T12:03:20.151Z,945
2023-03-26T12:04:23.881Z,945
2023-03-26T12:05:27.202Z,945
2023-03-26T12:06:30.730Z,945
2023-03-26T12:07:34.044Z,945
2023-03-26T12:08:37.435Z,945
2023-03-26T12:09:40.791Z,945
2023-03-26T12:10:44.105Z,945
2023-03-26T12:11:47.376Z,945
2023-03-26T12:12:50.758Z,946
2023-03-26T12:13:54.015Z,945
2023-03-26T12:14:57.592Z,945
2023-03-26T12:16:00.984Z,945
2023-03-26T12:17:04.300Z,945
2023-03-26T12:18:08.154Z,945
2023-03-26T12:19:11.540Z,945
2023-03-26T12:20:14.920Z,945
2023-03-26T12:21:18.190Z,945
2023-03-26T12:22:21.752Z,945
2023-03-26T12:23:25.028Z,945
2023-03-26T12:24:28.304Z,945
2023-03-26T12:25:31.818Z,945
2023-03-26T12:26:35.141Z,945
2023-03-26T12:27:38.462Z,945
2023-03-26T12:28:43.188Z,945
2023-03-26T12:29:46.492Z,945
2023-03-26T12:30:49.800Z,945
2023-03-26T12:31:53.412Z,945
2023-03-26T12:32:56.968Z,945
2023-03-26T12:34:00.559Z,945
2023-03-26T12:35:03.834Z,945
2023-03-26T12:36:07.274Z,945
2023-03-26T12:37:10.788Z,945
2023-03-26T12:38:14.089Z,945
2023-03-26T12:40:06.351Z,945
2023-03-26T12:40:35.526Z,945
2023-03-26T12:42:26.181Z,945
2023-03-26T12:44:45.669Z,945
2023-03-26T12:44:51.798Z,945
2023-03-26T12:45:37.105Z,945
2023-03-26T12:47:26.511Z,945
2023-03-26T12:48:04.764Z,945
2023-03-26T12:49:10.834Z,945
2023-03-26T12:50:14.163Z,945
2023-03-26T12:51:17.679Z,945
2023-03-26T12:52:20.969Z,945
2023-03-26T12:53:24.258Z,945
2023-03-26T12:54:27.799Z,945
2023-03-26T12:55:31.119Z,945
2023-03-26T12:56:34.445Z,945
2023-03-26T12:57:38.008Z,945
2023-03-26T12:58:41.381Z,945
2023-03-26T12:59:44.799Z,945
2023-03-26T13:00:48.105Z,945
2023-03-26T13:01:51.782Z,945
2023-03-26T13:02:55.430Z,945
2023-03-26T13:03:58.793Z,945
2023-03-26T13:05:07.339Z,945
2023-03-26T13:06:10.825Z,945
2023-03-26T13:07:14.231Z,945
2023-03-26T13:08:17.829Z,945
2023-03-26T13:09:21.090Z,945
2023-03-26T13:10:24.703Z,945
2023-03-26T13:11:27.998Z,945
2023-03-26T13:12:31.300Z,945
2023-03-26T13:13:34.842Z,945
2023-03-26T13:14:38.132Z,945
2023-03-26T13:15:41.425Z,945
2023-03-26T13:16:44.923Z,945
2023-03-26T13:17:48.606Z,945
2023-03-26T13:18:52.043Z,945
2023-03-26T13:19:55.320Z,945
2023-03-26T13:20:58.860Z,945
2023-03-26T13:22:02.132Z,945
2023-03-26T13:23:05.442Z,945
2023-03-26T13:24:09.047Z,945
2023-03-26T13:25:12.592Z,945
2023-03-26T13:26:15.896Z,945
2023-03-26T13:27:19.190Z,945
2023-03-26T13:28:22.490Z,945
2023-03-26T13:29:25.892Z,945
2023-03-26T13:30:29.195Z,945
2023-03-26T13:31:32.767Z,945
2023-03-26T13:32:36.141Z,945
2023-03-26T13:33:39.680Z,945
2023-03-26T13:34:43.030Z,945
2023-03-26T13:35:46.682Z,945
2023-03-26T13:36:50.398Z,945
2023-03-26T13:37:53.810Z,945
2023-03-26T13:39:00.977Z,945
2023-03-26T13:40:04.451Z,945
2023-03-26T13:41:07.819Z,945
2023-03-26T13:42:11.110Z,945
2023-03-26T13:43:14.634Z,945
2023-03-26T13:44:17.977Z,945
2023-03-26T13:45:21.742Z,945
2023-03-26T13:46:25.361Z,945
2023-03-26T13:47:28.811Z,945
2023-03-26T13:48:32.103Z,945
2023-03-26T13:49:35.397Z,945
2023-03-26T13:50:38.862Z,945
2023-03-26T13:51:42.188Z,945
2023-03-26T13:52:45.773Z,945
2023-03-26T13:53:49.082Z,945
2023-03-26T13:54:52.391Z,945
2023-03-26T13:55:55.871Z,945
2023-03-26T13:56:59.281Z,945
2023-03-26T13:58:02.833Z,945
2023-03-26T13:59:06.097Z,945
2023-03-26T14:00:09.609Z,945
2023-03-26T14:01:13.231Z,945
2023-03-26T14:02:16.525Z,945
2023-03-26T14:03:19.917Z,945
2023-03-26T14:04:23.224Z,945
2023-03-26T14:05:26.499Z,945
2023-03-26T14:06:29.902Z,945
2023-03-26T14:07:33.184Z,945
2023-03-26T14:08:36.766Z,945
2023-03-26T14:09:40.079Z,945
2023-03-26T14:10:43.382Z,945
2023-03-26T14:11:46.861Z,945
2023-03-26T14:12:50.125Z,945
2023-03-26T14:13:53.410Z,945
2023-03-26T14:14:56.832Z,945
2023-03-26T14:16:00.343Z,945
2023-03-26T14:17:03.917Z,945
2023-03-26T14:18:07.401Z,944
2023-03-26T14:19:10.862Z,944
2023-03-26T14:20:14.150Z,944
2023-03-26T14:21:17.477Z,944
2023-03-26T14:22:20.926Z,944
2023-03-26T14:23:24.212Z,944
2023-03-26T14:24:27.791Z,944
2023-03-26T14:25:31.076Z,944
2023-03-26T14:26:34.363Z,945
2023-03-26T14:27:37.943Z,945
2023-03-26T14:28:41.203Z,945
2023-03-26T14:29:56.441Z,945
2023-03-26T14:31:00.943Z,944
2023-03-26T14:32:04.244Z,944
2023-03-26T14:33:07.741Z,944
2023-03-26T14:34:11.056Z,944
2023-03-26T14:35:14.328Z,944
2023-03-26T14:36:17.866Z,944
2023-03-26T14:37:28.483Z,944
2023-03-26T14:38:35.028Z,944